Time;durP1;ratioP1;P1;durP2;ratioP2;P2;SDS_P1;SDS_P2;PMS_P1;PMS_P2;Temp;Humidity;BMP_temperature;BMP_pressure;BME280_temperature;BME280_humidity;BME280_pressure;Samples;Min_cycle;Max_cycle;Signal;HPM_P1;HPM_P2
2023/10/23 00:01:15;;;;;;;9.77;4.75;;;15.20;99.90;;;;;;4994797;28;20499;-70
2023/10/23 00:03:41;;;;;;;8.85;4.00;;;15.30;99.90;;;;;;4994731;28;20048;-70
2023/10/23 00:06:06;;;;;;;8.20;4.22;;;15.20;99.90;;;;;;4994722;28;20050;-71
2023/10/23 00:08:32;;;;;;;8.90;4.13;;;15.20;99.90;;;;;;4994707;28;20097;-71
2023/10/23 00:10:57;;;;;;;8.32;4.32;;;15.20;99.90;;;;;;4994912;28;20150;-70
2023/10/23 00:13:23;;;;;;;14.38;4.03;;;15.20;99.90;;;;;;4994494;28;20023;-71
2023/10/23 00:15:48;;;;;;;14.00;3.90;;;15.10;99.90;;;;;;4994733;28;20034;-70
2023/10/23 00:18:14;;;;;;;10.98;4.13;;;15.10;99.90;;;;;;4994386;28;20387;-70
2023/10/23 00:20:40;;;;;;;9.63;4.22;;;15.10;99.90;;;;;;4994549;28;20030;-71
2023/10/23 00:23:06;;;;;;;10.68;4.22;;;15.10;99.90;;;;;;4994372;28;20022;-71
2023/10/23 00:25:31;;;;;;;10.48;4.32;;;15.10;99.90;;;;;;4993942;28;20109;-70
2023/10/23 00:27:57;;;;;;;8.13;4.20;;;15.00;99.90;;;;;;4994583;28;20026;-70
2023/10/23 00:30:23;;;;;;;9.05;4.07;;;15.10;99.90;;;;;;4994257;28;20530;-71
2023/10/23 00:32:49;;;;;;;9.60;4.70;;;15.00;99.90;;;;;;4994710;28;20033;-71
2023/10/23 00:35:15;;;;;;;13.15;4.53;;;15.00;99.90;;;;;;4993874;28;20092;-70
2023/10/23 00:37:40;;;;;;;8.95;4.05;;;15.00;99.90;;;;;;4994357;28;20026;-71
2023/10/23 00:40:07;;;;;;;9.68;4.25;;;15.00;99.90;;;;;;4992897;28;20037;-71
2023/10/23 00:42:32;;;;;;;11.13;4.05;;;14.90;99.90;;;;;;4994245;28;20094;-70
2023/10/23 00:44:58;;;;;;;13.90;4.22;;;15.00;99.90;;;;;;4994124;28;20113;-71
2023/10/23 00:47:25;;;;;;;10.00;4.72;;;15.00;99.90;;;;;;4994097;28;20026;-70
2023/10/23 00:49:51;;;;;;;12.75;4.50;;;14.90;99.90;;;;;;4993946;28;20023;-70
2023/10/23 00:52:20;;;;;;;9.32;3.95;;;14.90;99.90;;;;;;4993922;28;20029;-70
2023/10/23 00:54:46;;;;;;;9.98;4.38;;;15.00;99.90;;;;;;4993911;28;20037;-70
2023/10/23 00:57:11;;;;;;;7.38;3.78;;;14.90;99.90;;;;;;4994028;28;20054;-70
2023/10/23 00:59:37;;;;;;;10.18;3.72;;;14.90;99.90;;;;;;4993934;28;20057;-70
2023/10/23 01:02:04;;;;;;;9.02;4.57;;;14.90;99.90;;;;;;4993799;28;20490;-71
2023/10/23 01:04:30;;;;;;;9.82;4.28;;;14.90;99.90;;;;;;4993513;28;20042;-70
2023/10/23 01:06:56;;;;;;;7.78;3.90;;;14.80;99.90;;;;;;4994020;28;20018;-70
2023/10/23 01:09:21;;;;;;;11.35;3.97;;;14.80;99.90;;;;;;4993720;28;20054;-70
2023/10/23 01:11:47;;;;;;;11.00;4.15;;;14.80;99.90;;;;;;4993912;28;20029;-70
2023/10/23 01:14:12;;;;;;;8.60;3.80;;;14.80;99.90;;;;;;4993554;28;20394;-70
2023/10/23 01:16:38;;;;;;;8.93;4.18;;;14.80;99.90;;;;;;4993858;28;20037;-70
2023/10/23 01:19:04;;;;;;;11.93;4.43;;;14.80;99.90;;;;;;4993564;28;20022;-70
2023/10/23 01:21:30;;;;;;;9.38;3.67;;;14.80;99.90;;;;;;4993646;28;20034;-71
2023/10/23 01:23:58;;;;;;;8.65;3.80;;;14.80;99.90;;;;;;4993752;28;20026;-70
2023/10/23 01:26:24;;;;;;;8.10;3.60;;;14.70;99.90;;;;;;4993499;28;20043;-70
2023/10/23 01:28:49;;;;;;;13.18;3.72;;;14.70;99.90;;;;;;4993756;28;20027;-70
2023/10/23 01:31:16;;;;;;;11.75;4.13;;;14.70;99.90;;;;;;4992245;28;20030;-70
2023/10/23 01:33:42;;;;;;;9.02;4.07;;;14.70;99.90;;;;;;4993229;28;20030;-70
2023/10/23 01:36:07;;;;;;;10.18;4.32;;;14.60;99.90;;;;;;4992287;28;20034;-70
2023/10/23 01:38:33;;;;;;;10.43;4.25;;;14.60;99.90;;;;;;4997557;28;20030;-70
2023/10/23 01:40:58;;;;;;;10.55;3.92;;;14.70;99.90;;;;;;4997587;28;20479;-70
2023/10/23 01:43:24;;;;;;;12.32;4.20;;;14.60;99.90;;;;;;4997521;28;20442;-71
2023/10/23 01:45:50;;;;;;;10.73;4.45;;;14.70;99.90;;;;;;4997721;28;20387;-70
2023/10/23 01:48:15;;;;;;;8.57;3.72;;;14.60;99.90;;;;;;4996979;28;20384;-70
2023/10/23 01:50:41;;;;;;;9.63;4.10;;;14.60;99.90;;;;;;4997411;28;20030;-70
2023/10/23 01:53:06;;;;;;;8.27;4.07;;;14.60;99.90;;;;;;4997384;28;20092;-70
2023/10/23 01:55:34;;;;;;;9.35;3.92;;;14.60;99.90;;;;;;4997196;28;20042;-70
2023/10/23 01:58:00;;;;;;;8.90;4.00;;;14.60;99.90;;;;;;4997098;28;20049;-70
2023/10/23 02:00:26;;;;;;;11.40;4.20;;;14.60;99.90;;;;;;4997216;28;20184;-70
2023/10/23 02:02:52;;;;;;;10.80;4.28;;;14.50;99.90;;;;;;4997143;28;20027;-70
2023/10/23 02:05:17;;;;;;;9.80;4.28;;;14.50;99.90;;;;;;4997090;28;20038;-70
2023/10/23 02:07:43;;;;;;;10.88;4.68;;;14.50;99.90;;;;;;4996973;28;20022;-71
2023/10/23 02:10:09;;;;;;;9.77;4.10;;;14.50;99.90;;;;;;4997052;28;20026;-71
2023/10/23 02:12:35;;;;;;;8.05;3.65;;;14.50;99.90;;;;;;4996807;28;20031;-72
2023/10/23 02:15:00;;;;;;;12.10;4.30;;;14.50;99.90;;;;;;4997388;28;20038;-69
2023/10/23 02:17:26;;;;;;;8.38;3.78;;;14.50;99.90;;;;;;4996432;28;20463;-71
2023/10/23 02:19:51;;;;;;;12.07;4.10;;;14.50;99.90;;;;;;4997165;28;20491;-71
2023/10/23 02:22:18;;;;;;;8.23;3.95;;;14.50;99.90;;;;;;4996759;28;20027;-69
2023/10/23 02:24:44;;;;;;;7.78;4.00;;;14.50;99.90;;;;;;4996820;28;20376;-70
2023/10/23 02:27:10;;;;;;;8.98;4.10;;;14.40;99.90;;;;;;4995361;28;20065;-70
2023/10/23 02:29:36;;;;;;;9.20;4.53;;;14.40;99.90;;;;;;4996694;28;20035;-70
2023/10/23 02:32:02;;;;;;;9.02;4.28;;;14.40;99.90;;;;;;4996195;28;20031;-70
2023/10/23 02:34:27;;;;;;;11.25;4.10;;;14.40;99.90;;;;;;4996472;28;20557;-70
2023/10/23 02:36:53;;;;;;;11.30;4.60;;;14.40;99.90;;;;;;4996602;28;20422;-70
2023/10/23 02:39:19;;;;;;;7.05;3.72;;;14.30;99.90;;;;;;4996460;28;20034;-70
2023/10/23 02:41:44;;;;;;;14.27;4.40;;;14.30;99.90;;;;;;4996284;28;20033;-70
2023/10/23 02:44:10;;;;;;;13.75;4.50;;;14.30;99.90;;;;;;4996406;28;20113;-70
2023/10/23 02:46:38;;;;;;;7.68;3.80;;;14.30;99.90;;;;;;4996030;28;20467;-71
2023/10/23 02:49:04;;;;;;;7.55;3.83;;;14.20;99.90;;;;;;4995686;28;20029;-70
2023/10/23 02:51:30;;;;;;;11.52;4.35;;;14.30;99.90;;;;;;4996172;28;20026;-71
2023/10/23 02:53:56;;;;;;;10.90;4.15;;;14.30;99.90;;;;;;4996103;28;20403;-70
2023/10/23 02:56:21;;;;;;;11.25;4.43;;;14.30;99.90;;;;;;4994906;28;20092;-70
2023/10/23 02:58:47;;;;;;;9.93;4.22;;;14.20;99.90;;;;;;4996038;28;20445;-70
2023/10/23 03:01:20;;;;;;;11.68;4.25;;;14.20;99.90;;;;;;4995798;28;20037;-70
2023/10/23 03:03:50;;;;;;;8.52;3.92;;;14.20;99.90;;;;;;4994585;28;20042;-70
2023/10/23 03:06:16;;;;;;;8.02;4.18;;;14.20;99.90;;;;;;4995727;28;20034;-70
2023/10/23 03:08:41;;;;;;;10.88;4.22;;;14.20;99.90;;;;;;4993981;28;20202;-69
2023/10/23 03:11:07;;;;;;;10.05;3.85;;;14.20;99.90;;;;;;5010703;28;20113;-70
2023/10/23 03:13:34;;;;;;;7.03;4.05;;;14.10;99.90;;;;;;4995645;28;20027;-70
2023/10/23 03:15:59;;;;;;;8.35;4.50;;;14.20;99.90;;;;;;4995620;28;20468;-69
2023/10/23 03:18:25;;;;;;;7.70;3.70;;;14.10;99.90;;;;;;4995594;28;20033;-69
2023/10/23 03:20:51;;;;;;;10.05;4.28;;;14.10;99.90;;;;;;4995939;28;20019;-70
2023/10/23 03:23:16;;;;;;;6.35;3.92;;;14.10;99.90;;;;;;4995641;28;20018;-70
2023/10/23 03:25:43;;;;;;;10.10;4.03;;;14.10;99.90;;;;;;4995657;28;20033;-70
2023/10/23 03:28:08;;;;;;;11.25;4.00;;;14.00;99.90;;;;;;4995392;28;20026;-70
2023/10/23 03:30:34;;;;;;;7.80;3.97;;;14.00;99.90;;;;;;4995415;28;20105;-70
2023/10/23 03:33:00;;;;;;;6.90;3.65;;;14.00;99.90;;;;;;4995501;28;20034;-70
2023/10/23 03:35:25;;;;;;;8.65;3.83;;;14.00;99.90;;;;;;4995456;28;20077;-70
2023/10/23 03:37:51;;;;;;;10.77;4.10;;;14.00;99.90;;;;;;4995323;28;20486;-70
2023/10/23 03:40:20;;;;;;;5.40;3.75;;;14.00;99.90;;;;;;4995518;28;20037;-70
2023/10/23 03:42:45;;;;;;;8.88;4.18;;;14.00;99.90;;;;;;4995094;28;20030;-70
2023/10/23 03:45:11;;;;;;;8.25;3.65;;;14.00;99.90;;;;;;4995083;28;20038;-70
2023/10/23 03:47:36;;;;;;;7.88;3.58;;;14.00;99.90;;;;;;4995166;28;20025;-69
2023/10/23 03:50:02;;;;;;;9.80;3.97;;;13.90;99.90;;;;;;4995149;28;20419;-69
2023/10/23 03:52:28;;;;;;;7.57;4.10;;;13.90;99.90;;;;;;4995158;28;20026;-69
2023/10/23 03:54:53;;;;;;;8.77;3.63;;;14.00;99.90;;;;;;4994890;28;20085;-69
2023/10/23 03:57:19;;;;;;;10.48;4.07;;;14.00;99.90;;;;;;4995209;28;20030;-70
2023/10/23 03:59:44;;;;;;;11.32;3.85;;;14.00;99.90;;;;;;4994184;28;20360;-70
2023/10/23 04:02:10;;;;;;;9.10;4.13;;;13.90;99.90;;;;;;4994260;28;20502;-69
2023/10/23 04:04:36;;;;;;;9.00;3.47;;;13.90;99.90;;;;;;4994827;28;20162;-69
2023/10/23 04:07:01;;;;;;;9.20;3.72;;;13.90;99.90;;;;;;4994883;28;20033;-69
2023/10/23 04:09:31;;;;;;;9.15;3.85;;;13.90;99.90;;;;;;4994808;28;20026;-69
2023/10/23 04:11:56;;;;;;;12.25;3.85;;;13.90;99.90;;;;;;4994707;28;20365;-70
2023/10/23 04:14:22;;;;;;;9.23;3.85;;;13.90;99.90;;;;;;4994406;28;20061;-69
2023/10/23 04:16:48;;;;;;;8.90;3.40;;;13.90;99.90;;;;;;4994758;28;20021;-69
2023/10/23 04:19:13;;;;;;;10.50;3.70;;;13.90;99.90;;;;;;4994557;28;20360;-69
2023/10/23 04:21:39;;;;;;;9.88;3.67;;;13.90;99.90;;;;;;4994431;28;20025;-69
2023/10/23 04:24:11;;;;;;;9.02;3.88;;;13.90;99.90;;;;;;4994391;28;20494;-69
2023/10/23 04:26:37;;;;;;;6.97;3.08;;;13.80;99.90;;;;;;4994363;28;20419;-70
2023/10/23 04:29:02;;;;;;;9.07;3.58;;;13.80;99.90;;;;;;4994482;28;20019;-70
2023/10/23 04:31:28;;;;;;;11.13;4.00;;;13.80;99.90;;;;;;4994504;28;20065;-70
2023/10/23 04:33:53;;;;;;;7.63;3.45;;;13.80;99.90;;;;;;4994152;28;20034;-70
2023/10/23 04:36:20;;;;;;;8.93;3.38;;;13.80;99.90;;;;;;4994064;28;20038;-70
2023/10/23 04:38:46;;;;;;;7.38;3.50;;;13.80;99.90;;;;;;4993145;28;20030;-70
2023/10/23 04:41:12;;;;;;;6.50;3.22;;;13.80;99.90;;;;;;4992362;28;20027;-69
2023/10/23 04:43:37;;;;;;;6.43;2.53;;;13.80;99.90;;;;;;4990545;28;20027;-70
2023/10/23 04:46:03;;;;;;;7.00;2.75;;;13.80;99.90;;;;;;4994158;28;20455;-70
2023/10/23 04:48:29;;;;;;;8.00;2.70;;;13.80;99.90;;;;;;4994178;28;20072;-69
2023/10/23 04:50:59;;;;;;;7.43;2.95;;;13.90;99.90;;;;;;4991512;28;20456;-76
2023/10/23 04:53:26;;;;;;;7.25;2.80;;;13.90;99.90;;;;;;4991465;28;20053;-70
2023/10/23 04:55:52;;;;;;;7.35;3.15;;;13.90;99.90;;;;;;4992087;28;20077;-68
2023/10/23 04:58:18;;;;;;;8.15;2.90;;;13.90;99.90;;;;;;4990950;28;20072;-71
2023/10/23 05:00:44;;;;;;;8.88;3.10;;;13.90;99.90;;;;;;4992368;28;20019;-70
2023/10/23 05:03:09;;;;;;;10.63;4.05;;;13.90;99.90;;;;;;4992855;28;20041;-69
2023/10/23 05:05:36;;;;;;;9.88;3.80;;;13.90;99.90;;;;;;4991370;28;20027;-70
2023/10/23 05:08:03;;;;;;;10.02;3.70;;;13.80;99.90;;;;;;4991767;28;20073;-70
2023/10/23 05:10:30;;;;;;;9.55;3.97;;;13.70;99.90;;;;;;4991990;28;20029;-70
2023/10/23 05:12:56;;;;;;;13.82;4.10;;;13.60;99.90;;;;;;4993155;28;20038;-69
2023/10/23 05:15:22;;;;;;;11.38;4.55;;;13.70;99.90;;;;;;4988023;28;20120;-69
2023/10/23 05:17:48;;;;;;;16.40;5.10;;;13.70;99.90;;;;;;4993647;28;20134;-69
2023/10/23 05:20:14;;;;;;;13.60;6.63;;;13.70;99.90;;;;;;4993282;28;20022;-68
2023/10/23 05:22:40;;;;;;;18.73;7.35;;;13.70;99.90;;;;;;4993701;28;20062;-69
2023/10/23 05:25:06;;;;;;;14.50;6.07;;;13.70;99.90;;;;;;4993333;28;20598;-69
2023/10/23 05:27:32;;;;;;;15.13;6.20;;;13.70;99.90;;;;;;4990885;28;20034;-69
2023/10/23 05:29:58;;;;;;;13.00;4.40;;;13.70;99.90;;;;;;4993280;28;20387;-68
2023/10/23 05:32:24;;;;;;;10.18;4.22;;;13.70;99.90;;;;;;4993128;28;20018;-69
2023/10/23 05:34:49;;;;;;;12.45;4.50;;;13.70;99.90;;;;;;4993323;28;20046;-68
2023/10/23 05:37:15;;;;;;;14.30;4.45;;;13.60;99.90;;;;;;4993615;28;20026;-68
2023/10/23 05:39:41;;;;;;;8.65;4.10;;;13.60;99.90;;;;;;4993389;28;20031;-68
2023/10/23 05:42:06;;;;;;;12.15;4.10;;;13.60;99.90;;;;;;4993093;28;20027;-69
2023/10/23 05:44:32;;;;;;;13.68;4.45;;;13.60;99.90;;;;;;4993278;28;20030;-68
2023/10/23 05:46:57;;;;;;;9.38;3.58;;;13.60;99.90;;;;;;4991235;28;20030;-69
2023/10/23 05:49:23;;;;;;;12.25;4.80;;;13.60;99.90;;;;;;4991625;28;20022;-69
2023/10/23 05:51:49;;;;;;;13.35;4.15;;;13.60;99.90;;;;;;4992106;28;20026;-69
2023/10/23 05:54:16;;;;;;;8.88;4.57;;;13.50;99.90;;;;;;4992546;28;20074;-69
2023/10/23 05:56:46;;;;;;;11.52;4.40;;;13.50;99.90;;;;;;4991306;28;20026;-69
2023/10/23 05:59:11;;;;;;;13.70;4.70;;;13.50;99.90;;;;;;4992683;28;20034;-69
2023/10/23 06:01:37;;;;;;;10.32;4.57;;;13.50;99.90;;;;;;4992245;28;20029;-70
2023/10/23 06:04:04;;;;;;;12.05;4.25;;;13.40;99.90;;;;;;4991194;28;20471;-69
2023/10/23 06:06:30;;;;;;;10.02;4.13;;;13.40;99.90;;;;;;4992335;28;20120;-70
2023/10/23 06:08:56;;;;;;;10.52;4.32;;;13.40;99.90;;;;;;4992189;28;20031;-71
2023/10/23 06:11:23;;;;;;;13.05;4.50;;;13.40;99.90;;;;;;4989023;28;20475;-71
2023/10/23 06:13:49;;;;;;;18.05;5.55;;;13.40;99.90;;;;;;4992275;28;20026;-71
2023/10/23 06:16:14;;;;;;;10.77;5.10;;;13.40;99.90;;;;;;4991225;28;20029;-70
2023/10/23 06:18:40;;;;;;;22.70;5.60;;;13.40;99.90;;;;;;4991186;28;20041;-71
2023/10/23 06:21:06;;;;;;;19.48;5.60;;;13.40;99.90;;;;;;4991878;28;20034;-72
2023/10/23 06:23:33;;;;;;;24.63;5.68;;;13.40;99.90;;;;;;4974022;28;20483;-72
2023/10/23 06:25:59;;;;;;;22.38;5.28;;;13.30;99.90;;;;;;4996463;28;20420;-72
2023/10/23 06:28:26;;;;;;;10.23;4.15;;;13.40;99.90;;;;;;4996680;28;20494;-72
2023/10/23 06:30:52;;;;;;;7.88;4.43;;;13.30;99.90;;;;;;4996649;28;20029;-72
2023/10/23 06:33:18;;;;;;;10.48;4.18;;;13.30;99.90;;;;;;4996546;28;20375;-72
2023/10/23 06:35:43;;;;;;;9.63;4.07;;;13.30;99.90;;;;;;4996576;28;20065;-71
2023/10/23 06:38:09;;;;;;;10.23;3.90;;;13.30;99.90;;;;;;4995753;28;20456;-72
2023/10/23 06:40:35;;;;;;;10.40;3.42;;;13.20;99.90;;;;;;4996312;28;20384;-72
2023/10/23 06:43:00;;;;;;;11.20;3.33;;;13.20;99.90;;;;;;4996479;28;20027;-71
2023/10/23 06:45:26;;;;;;;8.10;3.30;;;13.30;99.90;;;;;;4996330;28;20026;-72
2023/10/23 06:47:51;;;;;;;7.68;3.30;;;13.20;99.90;;;;;;4996144;28;20031;-72
2023/10/23 06:50:18;;;;;;;9.63;3.60;;;13.30;99.90;;;;;;4996317;28;20018;-72
2023/10/23 06:52:44;;;;;;;10.77;3.03;;;13.30;99.90;;;;;;4994818;28;20105;-70
2023/10/23 06:55:10;;;;;;;8.90;3.58;;;13.30;99.90;;;;;;4996116;28;20116;-71
2023/10/23 06:57:36;;;;;;;6.85;2.92;;;13.20;99.90;;;;;;4995953;28;20468;-70
2023/10/23 07:00:02;;;;;;;11.38;3.40;;;13.20;99.90;;;;;;4996021;28;20033;-71
2023/10/23 07:02:27;;;;;;;9.93;3.53;;;13.20;99.90;;;;;;4995859;28;20447;-71
2023/10/23 07:04:53;;;;;;;12.75;4.03;;;13.20;99.90;;;;;;4996098;28;20495;-71
2023/10/23 07:07:19;;;;;;;8.88;3.03;;;13.20;99.90;;;;;;4995587;28;20490;-72
2023/10/23 07:09:45;;;;;;;8.93;3.83;;;13.10;99.90;;;;;;4995834;28;20101;-69
2023/10/23 07:12:11;;;;;;;9.57;3.90;;;13.20;99.90;;;;;;4995685;28;20026;-70
2023/10/23 07:14:37;;;;;;;11.73;4.13;;;13.20;99.90;;;;;;4995548;28;20033;-70
2023/10/23 07:17:02;;;;;;;10.43;3.72;;;13.20;99.90;;;;;;4995443;28;20030;-70
2023/10/23 07:19:28;;;;;;;10.00;3.85;;;13.20;99.90;;;;;;4995525;28;20022;-71
2023/10/23 07:21:54;;;;;;;13.73;4.03;;;13.20;99.90;;;;;;4995519;28;20030;-71
2023/10/23 07:24:19;;;;;;;7.70;3.65;;;13.20;99.90;;;;;;4995405;28;20106;-72
2023/10/23 07:26:45;;;;;;;10.32;3.85;;;13.20;99.90;;;;;;4994992;28;20062;-72
2023/10/23 07:29:10;;;;;;;14.70;4.03;;;13.20;99.90;;;;;;4995400;28;20027;-72
2023/10/23 07:31:39;;;;;;;9.75;3.80;;;13.20;99.90;;;;;;4995395;28;20034;-72
2023/10/23 07:34:05;;;;;;;8.07;4.20;;;13.20;99.90;;;;;;4995220;28;20043;-72
2023/10/23 07:36:31;;;;;;;12.00;4.38;;;13.20;99.90;;;;;;4993768;28;20077;-72
2023/10/23 07:38:56;;;;;;;10.27;4.15;;;13.20;99.90;;;;;;4995250;28;20557;-72
2023/10/23 07:41:22;;;;;;;16.13;4.53;;;13.20;99.90;;;;;;4995442;28;20022;-72
2023/10/23 07:43:48;;;;;;;16.00;5.80;;;13.20;99.90;;;;;;4995154;28;20100;-72
2023/10/23 07:46:13;;;;;;;14.60;5.45;;;13.20;99.90;;;;;;4993483;28;20109;-72
2023/10/23 07:48:40;;;;;;;11.02;4.50;;;13.20;99.90;;;;;;4994886;28;20380;-72
2023/10/23 07:51:06;;;;;;;13.23;5.00;;;13.20;99.90;;;;;;5009993;28;20554;-71
2023/10/23 07:53:38;;;;;;;10.30;4.45;;;13.10;99.90;;;;;;4995121;28;20030;-72
2023/10/23 07:56:04;;;;;;;13.40;4.85;;;13.10;99.90;;;;;;4994001;28;20038;-71
2023/10/23 07:58:31;;;;;;;15.93;5.70;;;13.20;99.90;;;;;;4994643;28;20420;-72
2023/10/23 08:01:07;;;;;;;8.77;4.63;;;13.10;99.90;;;;;;4995016;28;20114;-72
2023/10/23 08:03:33;;;;;;;13.02;5.35;;;13.20;99.90;;;;;;4994635;28;20039;-72
2023/10/23 08:06:00;;;;;;;10.60;5.07;;;13.20;99.90;;;;;;4994609;28;20434;-72
2023/10/23 08:08:26;;;;;;;11.10;4.28;;;13.10;99.90;;;;;;4994847;28;20022;-72
2023/10/23 08:10:52;;;;;;;12.68;5.55;;;13.20;99.90;;;;;;4994734;28;20109;-71
2023/10/23 08:13:18;;;;;;;16.38;4.20;;;13.20;99.90;;;;;;4993395;28;20102;-72
2023/10/23 08:15:44;;;;;;;13.93;4.55;;;13.20;99.90;;;;;;4994458;28;20041;-72
2023/10/23 08:18:10;;;;;;;12.73;4.28;;;13.30;99.90;;;;;;4994276;28;20019;-71
2023/10/23 08:20:35;;;;;;;13.38;3.95;;;13.30;99.90;;;;;;4993136;28;20109;-72
2023/10/23 08:23:01;;;;;;;17.15;5.05;;;13.30;99.90;;;;;;4994120;28;20112;-71
2023/10/23 08:25:27;;;;;;;10.88;3.65;;;13.30;99.90;;;;;;4993257;28;20026;-69
2023/10/23 08:27:52;;;;;;;11.60;3.47;;;13.40;99.90;;;;;;4994230;28;20023;-68
2023/10/23 08:30:18;;;;;;;7.40;3.15;;;13.40;99.90;;;;;;4993924;28;20034;-69
2023/10/23 08:32:44;;;;;;;10.15;4.05;;;13.40;99.90;;;;;;4993438;28;20037;-70
2023/10/23 08:35:09;;;;;;;8.43;3.35;;;13.40;99.90;;;;;;4992695;28;20447;-72
2023/10/23 08:37:35;;;;;;;12.23;3.90;;;13.40;99.90;;;;;;4990234;28;20114;-70
2023/10/23 08:40:03;;;;;;;9.93;3.40;;;13.50;99.90;;;;;;4992848;28;20044;-69
2023/10/23 08:42:29;;;;;;;10.52;3.95;;;13.50;99.90;;;;;;4994070;28;20021;-69
2023/10/23 08:44:55;;;;;;;12.02;4.60;;;13.50;99.90;;;;;;4994051;28;20030;-72
2023/10/23 08:47:21;;;;;;;18.60;5.28;;;13.60;99.90;;;;;;4993131;28;20085;-69
2023/10/23 08:49:49;;;;;;;21.52;5.18;;;13.50;99.90;;;;;;4993320;28;20030;-69
2023/10/23 08:52:17;;;;;;;19.95;4.90;;;13.60;99.90;;;;;;4993483;28;20049;-69
2023/10/23 08:54:43;;;;;;;14.95;4.03;;;13.60;99.90;;;;;;4993894;28;20038;-69
2023/10/23 08:57:09;;;;;;;19.48;4.43;;;13.60;99.90;;;;;;4992822;28;20423;-69
2023/10/23 08:59:36;;;;;;;13.45;4.47;;;13.60;99.90;;;;;;4993841;28;20026;-71
2023/10/23 09:02:01;;;;;;;21.30;4.78;;;13.60;99.90;;;;;;4993537;28;20034;-70
2023/10/23 09:04:28;;;;;;;10.52;3.92;;;13.60;99.90;;;;;;4993383;28;20087;-69
2023/10/23 09:06:55;;;;;;;13.10;4.22;;;13.60;99.90;;;;;;4992592;28;20459;-69
2023/10/23 09:09:23;;;;;;;13.02;4.40;;;13.70;99.90;;;;;;4993660;28;20037;-69
2023/10/23 09:11:50;;;;;;;14.80;3.90;;;13.70;99.90;;;;;;4993809;28;20108;-69
2023/10/23 09:14:24;;;;;;;10.45;4.13;;;13.70;99.90;;;;;;4992465;28;20030;-70
2023/10/23 09:16:51;;;;;;;9.20;3.92;;;13.70;99.90;;;;;;4992154;28;20037;-69
2023/10/23 09:19:36;;;;;;;17.13;4.28;;;13.70;99.90;;;;;;4993846;28;20376;-70
2023/10/23 09:22:10;;;;;;;14.13;4.28;;;13.70;99.90;;;;;;4992434;28;20129;-69
2023/10/23 09:24:36;;;;;;;15.25;4.55;;;13.70;99.90;;;;;;4993736;28;20108;-69
2023/10/23 09:27:03;;;;;;;9.13;3.78;;;13.70;99.90;;;;;;4993169;28;20502;-68
2023/10/23 09:29:28;;;;;;;9.02;4.13;;;13.70;99.90;;;;;;4991686;28;20033;-69
2023/10/23 09:31:56;;;;;;;12.98;4.00;;;13.80;99.90;;;;;;4993469;28;20109;-69
2023/10/23 09:34:21;;;;;;;11.88;4.07;;;13.80;99.90;;;;;;4993614;28;20039;-70
2023/10/23 09:36:50;;;;;;;13.05;3.70;;;13.80;99.90;;;;;;4992168;28;20033;-69
2023/10/23 09:39:16;;;;;;;10.48;3.65;;;13.80;99.90;;;;;;4991523;28;20026;-69
2023/10/23 09:41:44;;;;;;;12.75;4.40;;;13.90;99.90;;;;;;4991899;28;20054;-71
2023/10/23 09:44:13;;;;;;;9.82;3.75;;;13.80;99.90;;;;;;4993238;28;20379;-68
2023/10/23 09:46:39;;;;;;;8.05;3.50;;;13.90;99.90;;;;;;4992196;28;20034;-70
2023/10/23 09:49:06;;;;;;;11.48;4.05;;;13.90;99.90;;;;;;4992388;28;20022;-70
2023/10/23 09:51:40;;;;;;;9.93;3.90;;;13.90;99.90;;;;;;4991371;28;20030;-69
2023/10/23 09:54:17;;;;;;;7.53;3.30;;;13.90;99.90;;;;;;4993666;28;20057;-69
2023/10/23 09:56:53;;;;;;;8.60;3.42;;;14.00;99.90;;;;;;4997441;28;21010;-70
2023/10/23 09:59:24;;;;;;;11.50;3.92;;;14.00;99.90;;;;;;4994984;28;20080;-70
2023/10/23 10:01:50;;;;;;;10.47;4.07;;;14.00;99.90;;;;;;4995804;28;20546;-71
2023/10/23 10:04:21;;;;;;;18.63;4.90;;;14.00;99.90;;;;;;4995687;28;20042;-69
2023/10/23 10:06:48;;;;;;;10.02;3.30;;;14.00;99.90;;;;;;4996281;28;20029;-70
2023/10/23 10:09:14;;;;;;;12.48;3.70;;;14.00;99.90;;;;;;4996053;28;20031;-69
2023/10/23 10:11:43;;;;;;;13.30;3.85;;;14.10;99.90;;;;;;4996185;28;20030;-70
2023/10/23 10:14:13;;;;;;;11.27;3.60;;;14.10;99.90;;;;;;4994454;28;20030;-68
2023/10/23 10:16:39;;;;;;;13.02;3.80;;;14.10;99.90;;;;;;4992267;28;20034;-68
2023/10/23 10:19:23;;;;;;;13.55;3.53;;;14.10;99.90;;;;;;4989790;28;20476;-68
2023/10/23 10:22:13;;;;;;;12.02;3.38;;;14.10;99.90;;;;;;4994244;28;20046;-68
2023/10/23 10:24:40;;;;;;;11.20;3.25;;;14.10;99.90;;;;;;4996073;28;20033;-68
2023/10/23 10:27:07;;;;;;;10.55;3.05;;;14.20;99.90;;;;;;4993247;28;20492;-68
2023/10/23 10:29:33;;;;;;;8.13;2.60;;;14.20;99.90;;;;;;4993084;28;20114;-68
2023/10/23 10:32:08;;;;;;;11.05;3.35;;;14.20;99.90;;;;;;4993682;28;20113;-68
2023/10/23 10:34:46;;;;;;;12.93;3.72;;;14.20;99.90;;;;;;4993467;28;20054;-69
2023/10/23 10:37:13;;;;;;;15.30;3.95;;;14.20;99.90;;;;;;4994992;28;20054;-69
2023/10/23 10:39:59;;;;;;;11.48;3.40;;;14.30;99.90;;;;;;4995044;28;20045;-69
2023/10/23 10:42:29;;;;;;;15.27;3.85;;;14.30;99.90;;;;;;4986534;28;20038;-68
2023/10/23 10:44:56;;;;;;;13.82;3.85;;;14.30;99.90;;;;;;4987121;28;20030;-67
2023/10/23 10:47:35;;;;;;;15.48;4.05;;;14.40;99.90;;;;;;4983800;28;20045;-69
2023/10/23 10:50:01;;;;;;;10.73;3.22;;;14.40;99.90;;;;;;4995804;28;20031;-69
2023/10/23 10:52:27;;;;;;;15.90;3.67;;;14.40;99.90;;;;;;4993385;28;20080;-69
2023/10/23 10:55:00;;;;;;;14.30;3.70;;;14.40;99.90;;;;;;4993483;28;20084;-69
2023/10/23 10:57:25;;;;;;;;;;;14.40;99.90;;;;;;4995045;28;20019;-69
2023/10/23 10:59:56;;;;;;;9.15;3.20;;;14.40;99.90;;;;;;4995123;28;20358;-69
2023/10/23 11:02:22;;;;;;;11.52;2.90;;;14.40;99.90;;;;;;4994700;28;20031;-69
2023/10/23 11:04:48;;;;;;;15.65;3.30;;;14.50;99.90;;;;;;4994521;28;20023;-69
2023/10/23 11:07:15;;;;;;;12.15;2.60;;;14.50;99.90;;;;;;4995098;28;20034;-69
2023/10/23 11:09:41;;;;;;;16.00;3.25;;;14.50;99.90;;;;;;4994248;28;20026;-69
2023/10/23 11:12:07;;;;;;;12.32;3.15;;;14.50;99.90;;;;;;4993378;28;20035;-68
2023/10/23 11:14:33;;;;;;;12.35;2.60;;;14.50;99.90;;;;;;4994495;28;20181;-68
2023/10/23 11:16:59;;;;;;;10.95;3.22;;;14.60;99.90;;;;;;4995207;28;20567;-68
2023/10/23 11:19:24;;;;;;;10.95;3.08;;;14.60;99.90;;;;;;4994583;28;20046;-67
2023/10/23 11:22:06;;;;;;;12.95;3.55;;;14.60;99.90;;;;;;4994381;28;20026;-68
2023/10/23 11:24:31;;;;;;;14.60;3.13;;;14.60;99.90;;;;;;4994080;28;20034;-69
2023/10/23 11:26:57;;;;;;;17.25;2.92;;;14.70;99.90;;;;;;4994408;28;20038;-73
2023/10/23 11:29:23;;;;;;;11.20;3.30;;;14.70;99.90;;;;;;4992433;28;20460;-74
2023/10/23 11:31:49;;;;;;;9.65;2.42;;;14.70;99.90;;;;;;4993960;28;20026;-69
2023/10/23 11:34:16;;;;;;;8.20;2.50;;;14.70;99.90;;;;;;4994198;28;20037;-69
2023/10/23 11:36:42;;;;;;;5.05;2.35;;;14.80;99.90;;;;;;4993995;28;20057;-68
2023/10/23 11:39:09;;;;;;;9.35;2.55;;;14.80;99.90;;;;;;5008310;28;20043;-68
2023/10/23 11:41:35;;;;;;;12.00;3.33;;;14.80;99.90;;;;;;4991271;28;20022;-67
2023/10/23 11:44:03;;;;;;;10.73;2.25;;;14.90;99.90;;;;;;4994293;28;20053;-68
2023/10/23 11:46:29;;;;;;;12.05;2.80;;;14.90;99.90;;;;;;4994311;28;20879;-69
2023/10/23 11:48:54;;;;;;;11.82;2.95;;;14.90;99.90;;;;;;4993263;28;20023;-68
2023/10/23 11:51:22;;;;;;;13.10;3.13;;;14.90;99.90;;;;;;4993619;28;20463;-69
2023/10/23 11:53:47;;;;;;;9.50;2.53;;;14.90;99.90;;;;;;4994319;28;20018;-70
2023/10/23 11:56:13;;;;;;;9.05;2.42;;;15.00;99.90;;;;;;4993989;28;20045;-69
2023/10/23 11:58:43;;;;;;;11.15;2.55;;;15.00;99.90;;;;;;4992399;28;20026;-68
2023/10/23 12:01:09;;;;;;;9.90;2.38;;;15.00;99.90;;;;;;4993151;28;20472;-68
2023/10/23 12:03:34;;;;;;;9.65;1.98;;;15.00;99.90;;;;;;4992897;28;20033;-69
2023/10/23 12:06:00;;;;;;;9.27;2.70;;;15.00;99.90;;;;;;4994079;28;20479;-69
2023/10/23 12:08:26;;;;;;;13.00;2.33;;;15.00;99.90;;;;;;4993404;28;20038;-69
2023/10/23 12:10:51;;;;;;;7.53;2.58;;;15.00;99.90;;;;;;4992919;28;20403;-69
2023/10/23 12:13:17;;;;;;;9.98;2.97;;;15.10;99.90;;;;;;4993627;28;20037;-69
2023/10/23 12:15:45;;;;;;;8.18;2.70;;;15.10;99.90;;;;;;4993425;28;20061;-69
2023/10/23 12:18:11;;;;;;;3.80;1.60;;;15.10;99.90;;;;;;4993657;28;20026;-69
2023/10/23 12:20:36;;;;;;;9.25;1.88;;;15.10;99.90;;;;;;4991726;28;20419;-68
2023/10/23 12:23:02;;;;;;;10.63;1.98;;;15.10;99.90;;;;;;4972058;28;20535;-69
2023/10/23 12:25:27;;;;;;;7.35;2.40;;;15.20;99.90;;;;;;4991468;28;20023;-68
2023/10/23 12:27:53;;;;;;;7.22;2.30;;;15.20;99.90;;;;;;4992648;28;20027;-68
2023/10/23 12:30:19;;;;;;;13.50;2.60;;;15.20;99.90;;;;;;4993006;28;20054;-69
2023/10/23 12:32:45;;;;;;;7.95;2.47;;;15.20;99.90;;;;;;4990746;28;20049;-68
2023/10/23 12:35:13;;;;;;;8.68;2.38;;;15.20;99.90;;;;;;4993700;28;20372;-68
2023/10/23 12:37:39;;;;;;;8.95;2.45;;;15.30;99.90;;;;;;4993190;28;20150;-69